createdAt,value
2019-02-06T00:01:20.935Z,102447.63
2019-02-06T00:04:32.104Z,102455.34
2019-02-06T00:07:43.301Z,102457.84
2019-02-06T00:08:48.711Z,102448.70
2019-02-06T00:10:56.519Z,102445.58
2019-02-06T00:18:28.305Z,102438.53
2019-02-06T00:20:36.071Z,102438.00
2019-02-06T00:21:40.299Z,102433.28
2019-02-06T00:24:51.281Z,102420.20
2019-02-06T00:25:55.878Z,102420.04
2019-02-06T00:28:03.585Z,102423.14
2019-02-06T00:29:07.969Z,102414.06
2019-02-06T00:31:18.548Z,102412.48
2019-02-06T00:32:22.958Z,102408.31
2019-02-06T00:34:30.757Z,102413.78
2019-02-06T00:35:35.273Z,102407.84
2019-02-06T00:36:39.558Z,102409.20
2019-02-06T00:37:44.071Z,102409.55
2019-02-06T00:39:51.558Z,102406.95
2019-02-06T00:43:02.955Z,102405.59
2019-02-06T00:46:15.169Z,102406.27
2019-02-06T00:48:23.526Z,102402.85
2019-02-06T00:50:31.373Z,102399.84
2019-02-06T00:51:35.865Z,102400.32
2019-02-06T00:52:40.289Z,102399.87
2019-02-06T00:53:44.795Z,102395.58
2019-02-06T00:54:48.943Z,102398.55
2019-02-06T00:55:53.420Z,102400.20
2019-02-06T00:58:01.491Z,102404.55
2019-02-06T01:00:14.383Z,102394.59
2019-02-06T01:01:18.929Z,102401.14
2019-02-06T01:03:26.417Z,102397.95
2019-02-06T01:04:30.725Z,102390.52
2019-02-06T01:05:38.547Z,102394.06
2019-02-06T01:08:47.719Z,102381.16
2019-02-06T01:13:02.339Z,102377.95
2019-02-06T01:15:11.032Z,102381.45
2019-02-06T01:17:18.535Z,102374.62
2019-02-06T01:19:27.440Z,102363.08
2019-02-06T01:22:38.334Z,102362.13
2019-02-06T01:24:45.915Z,102355.18
2019-02-06T01:26:53.821Z,102347.81
2019-02-06T01:27:58.212Z,102345.28
2019-02-06T01:32:21.905Z,102342.84
2019-02-06T01:35:33.089Z,102336.34
2019-02-06T01:36:38.261Z,102332.45
2019-02-06T01:39:49.191Z,102332.13
2019-02-06T01:40:53.399Z,102337.78
2019-02-06T01:43:01.451Z,102333.42
2019-02-06T01:45:11.914Z,102322.08
2019-02-06T01:46:16.293Z,102327.73
2019-02-06T01:47:20.772Z,102313.36
2019-02-06T01:48:25.179Z,102316.42
2019-02-06T01:52:39.692Z,102316.89
2019-02-06T01:53:44.162Z,102312.20
2019-02-06T01:54:48.567Z,102313.91
2019-02-06T01:56:56.323Z,102309.26
2019-02-06T01:58:01.177Z,102300.60
2019-02-06T01:59:05.574Z,102307.44
2019-02-06T02:00:21.443Z,102292.83
2019-02-06T02:09:55.306Z,102294.86
2019-02-06T02:13:06.196Z,102291.85
2019-02-06T02:15:16.296Z,102292.27
2019-02-06T02:16:20.747Z,102284.91
2019-02-06T02:18:28.515Z,102285.72
2019-02-06T02:21:39.652Z,102283.13
2019-02-06T02:24:50.796Z,102275.44
2019-02-06T02:26:58.568Z,102270.73
2019-02-06T02:28:03.072Z,102273.30
2019-02-06T02:30:14.067Z,102274.62
2019-02-06T02:31:18.217Z,102270.70
2019-02-06T02:34:29.145Z,102264.25
2019-02-06T02:35:33.667Z,102265.45
2019-02-06T02:36:38.054Z,102259.75
2019-02-06T02:37:42.228Z,102266.70
2019-02-06T02:39:50.351Z,102268.11
2019-02-06T02:41:57.881Z,102254.70
2019-02-06T02:43:02.294Z,102259.53
2019-02-06T02:45:12.948Z,102252.99
2019-02-06T02:49:27.521Z,102253.47
2019-02-06T02:50:31.919Z,102236.14
2019-02-06T02:53:42.897Z,102232.23
2019-02-06T02:55:50.780Z,102228.37
2019-02-06T02:56:55.209Z,102234.84
2019-02-06T02:59:02.803Z,102248.22
2019-02-06T03:01:17.368Z,102237.03
2019-02-06T03:02:21.760Z,102235.31
2019-02-06T03:03:25.959Z,102229.58
2019-02-06T03:05:33.765Z,102220.17
2019-02-06T03:08:44.737Z,102210.63
2019-02-06T03:11:55.707Z,102213.97
2019-02-06T03:13:00.121Z,102215.20
2019-02-06T03:14:04.634Z,102215.27
2019-02-06T03:16:13.039Z,102201.06
2019-02-06T03:18:20.636Z,102207.48
2019-02-06T03:19:25.025Z,102213.97
2019-02-06T03:21:33.661Z,102221.00
2019-02-06T03:25:48.224Z,102213.81
2019-02-06T03:26:52.398Z,102213.81
2019-02-06T03:27:56.784Z,102219.47
2019-02-06T03:32:16.730Z,102214.28
2019-02-06T03:35:28.833Z,102209.16
2019-02-06T03:37:36.593Z,102217.41
2019-02-06T03:38:40.829Z,102208.33
2019-02-06T03:39:45.242Z,102212.22
2019-02-06T03:40:49.643Z,102204.44
2019-02-06T03:42:57.167Z,102199.61
2019-02-06T03:45:07.912Z,102207.03
2019-02-06T03:46:12.511Z,102204.44
2019-02-06T03:49:23.653Z,102184.53
2019-02-06T03:50:28.053Z,102180.05
2019-02-06T03:51:32.203Z,102179.64
2019-02-06T03:58:57.960Z,102164.20
2019-02-06T04:01:07.800Z,102174.52
2019-02-06T04:02:11.957Z,102166.73
2019-02-06T04:03:16.213Z,102167.50
2019-02-06T04:05:23.731Z,102178.34
2019-02-06T04:06:27.906Z,102169.69
2019-02-06T04:07:32.312Z,102161.83
2019-02-06T04:10:43.501Z,102161.91
2019-02-06T04:11:47.702Z,102166.95
2019-02-06T04:13:55.488Z,102158.84
2019-02-06T04:15:00.194Z,102163.61
2019-02-06T04:16:04.882Z,102165.02
2019-02-06T04:17:09.123Z,102161.96
2019-02-06T04:18:13.537Z,102157.66
2019-02-06T04:20:21.337Z,102162.48
2019-02-06T04:22:28.865Z,102156.36
2019-02-06T04:27:46.767Z,102152.53
2019-02-06T04:29:54.297Z,102147.81
2019-02-06T04:30:58.449Z,102147.81
2019-02-06T04:33:06.214Z,102140.45
2019-02-06T04:34:10.676Z,102137.75
2019-02-06T04:35:15.295Z,102131.13
2019-02-06T04:38:27.492Z,102136.34
2019-02-06T04:40:35.793Z,102134.69
2019-02-06T04:41:40.206Z,102138.22
2019-02-06T04:42:44.613Z,102150.83
2019-02-06T04:43:48.814Z,102147.76
2019-02-06T04:44:53.436Z,102151.23
2019-02-06T04:47:01.545Z,102146.52
2019-02-06T04:48:05.828Z,102139.17
2019-02-06T04:49:09.939Z,102144.81
2019-02-06T04:51:18.556Z,102139.17
2019-02-06T04:52:22.939Z,102132.28
2019-02-06T04:53:27.371Z,102136.15
2019-02-06T04:54:31.581Z,102129.61
2019-02-06T04:56:39.177Z,102133.99
2019-02-06T04:58:46.770Z,102124.02
2019-02-06T04:59:51.477Z,102120.95
2019-02-06T05:00:56.094Z,102118.36
2019-02-06T05:02:00.256Z,102121.01
2019-02-06T05:03:04.693Z,102122.77
2019-02-06T05:04:08.795Z,102122.33
2019-02-06T05:08:23.371Z,102133.99
2019-02-06T05:09:27.673Z,102128.39
2019-02-06T05:12:38.863Z,102126.69
2019-02-06T05:14:46.869Z,102121.97
2019-02-06T05:15:51.279Z,102121.55
2019-02-06T05:20:25.195Z,102112.42
2019-02-06T05:21:29.340Z,102107.23
2019-02-06T05:22:33.751Z,102109.41
2019-02-06T05:28:55.003Z,102095.08
2019-02-06T05:29:59.392Z,102096.84
2019-02-06T05:31:03.863Z,102096.87
2019-02-06T05:32:08.544Z,102089.84
2019-02-06T05:33:13.230Z,102087.66
2019-02-06T05:35:21.092Z,102084.61
2019-02-06T05:38:31.981Z,102067.75
2019-02-06T05:39:36.378Z,102075.53
2019-02-06T05:41:44.195Z,102078.02
2019-02-06T05:44:55.355Z,102069.36
2019-02-06T05:50:16.173Z,102072.34
2019-02-06T05:53:27.359Z,102082.77
2019-02-06T05:56:38.500Z,102076.28
2019-02-06T05:58:46.244Z,102078.77
2019-02-06T05:59:50.945Z,102080.12
2019-02-06T06:00:55.639Z,102083.18
2019-02-06T06:04:06.781Z,102078.35
2019-02-06T06:05:10.941Z,102084.06
2019-02-06T06:07:18.531Z,102081.41
2019-02-06T06:09:26.325Z,102087.95
2019-02-06T06:12:37.471Z,102084.50
2019-02-06T06:13:42.076Z,102080.20
2019-02-06T06:14:46.851Z,102090.09
2019-02-06T06:16:54.628Z,102091.03
2019-02-06T06:20:08.693Z,102085.72
2019-02-06T06:21:12.896Z,102089.66
2019-02-06T06:24:23.786Z,102093.98
2019-02-06T06:25:28.170Z,102088.38
2019-02-06T06:29:42.532Z,102093.63
2019-02-06T06:30:47.366Z,102090.54
2019-02-06T06:31:51.952Z,102093.16
2019-02-06T06:32:56.349Z,102089.25
2019-02-06T06:34:00.580Z,102087.95
2019-02-06T06:35:07.853Z,102094.37
2019-02-06T06:36:12.025Z,102086.19
2019-02-06T06:37:16.481Z,102083.18
2019-02-06T06:38:21.883Z,102082.77
2019-02-06T06:39:26.279Z,102084.89
2019-02-06T06:40:30.682Z,102082.30
2019-02-06T06:44:45.214Z,102075.81
2019-02-06T06:45:49.619Z,102076.23
2019-02-06T06:49:00.563Z,102070.88
2019-02-06T06:50:09.059Z,102072.23
2019-02-06T06:51:13.485Z,102074.00
2019-02-06T06:52:17.910Z,102069.70
2019-02-06T06:54:27.606Z,102071.88
2019-02-06T06:55:35.053Z,102068.29
2019-02-06T06:59:48.515Z,102065.70
2019-02-06T07:00:53.457Z,102065.34
2019-02-06T07:01:57.843Z,102069.23
2019-02-06T07:04:05.793Z,102069.59
2019-02-06T07:06:15.777Z,102062.28
2019-02-06T07:07:20.172Z,102067.52
2019-02-06T07:08:24.556Z,102061.45
2019-02-06T07:11:36.713Z,102064.05
2019-02-06T07:13:44.244Z,102063.16
2019-02-06T07:14:48.652Z,102067.41
2019-02-06T07:15:53.407Z,102062.28
2019-02-06T07:21:14.711Z,102071.41
2019-02-06T07:25:29.259Z,102070.52
2019-02-06T07:26:34.084Z,102078.71
2019-02-06T07:29:45.380Z,102083.95
2019-02-06T07:30:50.081Z,102078.71
2019-02-06T07:35:05.348Z,102090.43
2019-02-06T07:36:09.768Z,102093.02
2019-02-06T07:38:24.478Z,102088.31
2019-02-06T07:43:37.986Z,102082.77
2019-02-06T07:47:52.333Z,102092.27
2019-02-06T07:48:56.735Z,102097.38
2019-02-06T07:50:01.359Z,102088.78
2019-02-06T07:55:22.191Z,102086.31
2019-02-06T07:56:26.593Z,102091.08
2019-02-06T07:57:30.994Z,102095.86
2019-02-06T07:59:38.763Z,102094.62
2019-02-06T08:01:46.853Z,102095.08
2019-02-06T08:02:51.618Z,102095.08
2019-02-06T08:06:02.674Z,102102.03
2019-02-06T08:07:06.803Z,102106.41
2019-02-06T08:08:11.293Z,102102.52
2019-02-06T08:10:23.733Z,102103.81
2019-02-06T08:12:31.514Z,102105.69
2019-02-06T08:13:35.908Z,102106.98
2019-02-06T08:16:46.889Z,102112.17
2019-02-06T08:17:51.045Z,102112.23
2019-02-06T08:19:58.582Z,102114.35
2019-02-06T08:21:02.991Z,102114.41
2019-02-06T08:23:10.787Z,102119.61
2019-02-06T08:24:14.978Z,102118.31
2019-02-06T08:25:21.553Z,102117.84
2019-02-06T08:26:25.959Z,102120.89
2019-02-06T08:27:30.105Z,102123.89
2019-02-06T08:29:37.959Z,102115.31
2019-02-06T08:31:46.026Z,102120.55
2019-02-06T08:32:50.433Z,102128.74
2019-02-06T08:34:59.800Z,102121.84
2019-02-06T08:40:21.341Z,102126.51
2019-02-06T08:43:32.320Z,102117.84
2019-02-06T08:47:46.681Z,102110.95
2019-02-06T08:49:54.195Z,102107.22
2019-02-06T08:52:02.470Z,102114.53
2019-02-06T08:53:06.871Z,102118.48
2019-02-06T08:55:17.129Z,102108.88
2019-02-06T08:56:21.521Z,102115.05
2019-02-06T08:57:25.734Z,102110.75
2019-02-06T08:59:36.169Z,102108.16
2019-02-06T09:00:40.968Z,102103.41
2019-02-06T09:03:52.424Z,102109.45
2019-02-06T09:07:03.317Z,102105.64
2019-02-06T09:10:20.196Z,102107.45
2019-02-06T09:11:24.613Z,102100.61
2019-02-06T09:12:29.007Z,102110.17
2019-02-06T09:13:33.425Z,102106.28
2019-02-06T09:14:37.581Z,102109.81
2019-02-06T09:15:41.727Z,102105.45
2019-02-06T09:16:46.155Z,102107.27
2019-02-06T09:17:50.879Z,102108.05
2019-02-06T09:23:08.780Z,102111.03
2019-02-06T09:26:21.811Z,102111.10
2019-02-06T09:27:26.187Z,102113.33
2019-02-06T09:28:30.336Z,102118.11
2019-02-06T09:29:34.763Z,102119.35
2019-02-06T09:30:38.927Z,102112.87
2019-02-06T09:31:43.518Z,102111.67
2019-02-06T09:34:55.079Z,102113.51
2019-02-06T09:37:05.089Z,102114.02
2019-02-06T09:38:08.726Z,102111.06
2019-02-06T09:39:13.124Z,102115.42
2019-02-06T09:40:21.221Z,102118.38
2019-02-06T09:41:25.621Z,102120.05
2019-02-06T09:42:30.299Z,102108.89
2019-02-06T09:45:41.196Z,102110.02
2019-02-06T09:47:49.826Z,102111.72
2019-02-06T09:49:58.212Z,102117.60
2019-02-06T09:52:06.743Z,102109.84
2019-02-06T09:54:14.504Z,102115.38
2019-02-06T09:57:26.038Z,102119.37
2019-02-06T09:58:30.338Z,102114.25
2019-02-06T09:59:34.724Z,102117.67
2019-02-06T10:02:45.865Z,102114.34
2019-02-06T10:03:50.013Z,102114.40
2019-02-06T10:04:54.549Z,102112.28
2019-02-06T10:05:58.700Z,102112.28
2019-02-06T10:07:02.952Z,102119.70
2019-02-06T10:09:10.463Z,102115.50
2019-02-06T10:10:18.427Z,102117.68
2019-02-06T10:12:26.180Z,102116.61
2019-02-06T10:17:44.997Z,102115.56
2019-02-06T10:21:59.359Z,102116.09
2019-02-06T10:24:08.286Z,102117.39
2019-02-06T10:27:19.277Z,102123.42
2019-02-06T10:28:24.388Z,102110.02
2019-02-06T10:29:28.863Z,102113.17
2019-02-06T10:31:40.034Z,102108.05
2019-02-06T10:32:44.623Z,102112.02
2019-02-06T10:36:59.969Z,102102.77
2019-02-06T10:38:04.223Z,102108.89
2019-02-06T10:39:08.624Z,102107.20
2019-02-06T10:42:19.781Z,102108.06
2019-02-06T10:43:31.502Z,102100.70
2019-02-06T10:47:40.191Z,102105.73
2019-02-06T10:49:48.484Z,102105.41
2019-02-06T10:50:52.899Z,102104.84
2019-02-06T10:51:57.289Z,102108.74
2019-02-06T10:53:01.689Z,102108.42
2019-02-06T10:58:21.282Z,102103.64
2019-02-06T10:59:25.703Z,102104.89
2019-02-06T11:00:33.960Z,102097.52
2019-02-06T11:02:41.500Z,102104.61
2019-02-06T11:04:49.583Z,102106.54
2019-02-06T11:06:57.373Z,102093.32
2019-02-06T11:09:06.375Z,102096.28
2019-02-06T11:12:27.271Z,102098.61
2019-02-06T11:16:41.534Z,102091.97
2019-02-06T11:18:49.065Z,102094.06
2019-02-06T11:19:53.697Z,102092.77
2019-02-06T11:23:05.963Z,102087.98
2019-02-06T11:28:24.988Z,102091.55
2019-02-06T11:29:29.463Z,102095.03
2019-02-06T11:36:57.098Z,102077.31
2019-02-06T11:41:16.853Z,102080.79
2019-02-06T11:42:21.245Z,102085.47
2019-02-06T11:44:28.781Z,102077.72
2019-02-06T11:46:37.173Z,102076.89
2019-02-06T11:47:41.581Z,102080.79
2019-02-06T11:49:50.093Z,102077.77
2019-02-06T11:50:54.291Z,102080.45
2019-02-06T11:53:02.086Z,102076.19
2019-02-06T11:56:16.919Z,102063.94
2019-02-06T11:58:24.540Z,102064.06
2019-02-06T12:01:35.740Z,102062.72
2019-02-06T12:02:40.725Z,102062.26
2019-02-06T12:04:48.248Z,102053.20
2019-02-06T12:05:53.055Z,102058.45
2019-02-06T12:08:00.846Z,102056.27
2019-02-06T12:11:21.191Z,102052.55
2019-02-06T12:14:32.387Z,102049.33
2019-02-06T12:16:40.003Z,102050.63
2019-02-06T12:17:44.169Z,102050.75
2019-02-06T12:18:48.890Z,102045.59
2019-02-06T12:21:59.973Z,102045.64
2019-02-06T12:23:05.622Z,102043.03
2019-02-06T12:26:19.610Z,102036.53
2019-02-06T12:30:39.999Z,102031.88
2019-02-06T12:32:52.317Z,102034.98
2019-02-06T12:34:58.072Z,102028.02
2019-02-06T12:36:03.088Z,102029.28
2019-02-06T12:37:07.691Z,102024.11
2019-02-06T12:38:13.535Z,102027.55
2019-02-06T12:42:27.892Z,102027.52
2019-02-06T12:43:32.101Z,102024.03
2019-02-06T12:44:36.271Z,102020.93
2019-02-06T12:47:48.435Z,102018.88
2019-02-06T12:48:52.578Z,102016.73
2019-02-06T12:49:57.324Z,102016.69
2019-02-06T12:54:11.825Z,101999.48
2019-02-06T12:55:19.643Z,102008.63
2019-02-06T12:56:24.177Z,102005.61
2019-02-06T12:57:36.224Z,102001.70
2019-02-06T12:58:34.457Z,102003.00
2019-02-06T13:03:53.981Z,101994.32
2019-02-06T13:04:58.447Z,101998.64
2019-02-06T13:06:03.584Z,101996.03
2019-02-06T13:11:22.959Z,101989.12
2019-02-06T13:14:34.091Z,101984.67
2019-02-06T13:17:45.124Z,101988.07
2019-02-06T13:21:59.988Z,101977.67
2019-02-06T13:24:09.008Z,101978.51
2019-02-06T13:26:17.122Z,101978.47
2019-02-06T13:27:21.531Z,101972.88
2019-02-06T13:29:29.315Z,101976.87
2019-02-06T13:30:35.463Z,101980.81
2019-02-06T13:31:39.863Z,101983.75
2019-02-06T13:32:44.092Z,101978.97
2019-02-06T13:34:51.672Z,101977.67
2019-02-06T13:38:02.656Z,101974.69
2019-02-06T13:39:09.411Z,101971.63
2019-02-06T13:40:16.852Z,101971.63
2019-02-06T13:42:25.396Z,101966.38
2019-02-06T13:43:29.510Z,101969.91
2019-02-06T13:49:55.348Z,101963.81
2019-02-06T13:51:00.065Z,101966.84
2019-02-06T13:52:04.798Z,101962.94
2019-02-06T13:55:16.724Z,101958.54
2019-02-06T13:56:21.187Z,101957.70
2019-02-06T13:57:33.400Z,101957.70
2019-02-06T13:58:31.465Z,101962.44
2019-02-06T14:01:44.059Z,101953.80
2019-02-06T14:07:02.729Z,101955.56
2019-02-06T14:08:10.120Z,101950.81
2019-02-06T14:10:20.898Z,101958.58
2019-02-06T14:12:29.384Z,101947.26
2019-02-06T14:14:37.192Z,101936.89
2019-02-06T14:16:47.019Z,101933.75
2019-02-06T14:17:51.215Z,101935.09
2019-02-06T14:18:55.349Z,101935.52
2019-02-06T14:20:01.177Z,101943.70
2019-02-06T14:23:16.326Z,101934.98
2019-02-06T14:27:09.176Z,101934.17
2019-02-06T14:30:03.261Z,101934.17
2019-02-06T14:31:20.828Z,101934.63
2019-02-06T14:37:15.208Z,101929.02
2019-02-06T14:48:22.098Z,101901.81
2019-02-06T14:56:14.034Z,101896.88
2019-02-06T15:00:07.466Z,101905.41
2019-02-06T15:02:42.777Z,101894.51
2019-02-06T15:03:54.136Z,101897.19
2019-02-06T15:06:30.030Z,101889.39
2019-02-06T15:10:19.843Z,101894.55
2019-02-06T15:13:58.207Z,101884.07
2019-02-06T15:15:08.368Z,101889.73
2019-02-06T15:16:31.632Z,101889.77
2019-02-06T15:20:48.263Z,101889.77
2019-02-06T15:23:09.998Z,101883.66
2019-02-06T15:27:34.443Z,101883.54
2019-02-06T15:34:01.475Z,101866.59
2019-02-06T15:37:30.081Z,101866.91
2019-02-06T15:41:34.453Z,101867.73
2019-02-06T15:42:46.519Z,101866.02
2019-02-06T15:49:24.581Z,101869.38
2019-02-06T15:54:50.941Z,101866.83
2019-02-06T16:01:56.047Z,101872.37
2019-02-06T16:08:23.230Z,101870.11
2019-02-06T16:09:38.369Z,101872.28
2019-02-06T16:13:58.171Z,101872.25
2019-02-06T16:18:11.586Z,101869.61
2019-02-06T16:25:02.682Z,101863.03
2019-02-06T16:26:11.223Z,101860.42
2019-02-06T16:28:44.038Z,101867.34
2019-02-06T16:31:31.513Z,101860.81
2019-02-06T16:32:48.396Z,101857.33
2019-02-06T16:34:15.116Z,101861.23
2019-02-06T16:48:53.881Z,101846.39
2019-02-06T16:50:03.700Z,101851.59
2019-02-06T16:51:16.962Z,101854.19
2019-02-06T17:02:22.282Z,101840.28
2019-02-06T17:06:30.351Z,101826.25
2019-02-06T17:09:04.204Z,101835.00
2019-02-06T17:10:22.084Z,101832.86
2019-02-06T17:14:26.056Z,101829.34
2019-02-06T17:16:55.124Z,101831.98
2019-02-06T17:21:58.226Z,101824.98
2019-02-06T17:24:23.269Z,101818.03
2019-02-06T17:31:03.445Z,101811.91
2019-02-06T17:40:18.403Z,101810.66
2019-02-06T17:41:46.848Z,101811.12
2019-02-06T17:45:21.804Z,101801.14
2019-02-06T17:47:56.573Z,101807.59
2019-02-06T17:53:41.469Z,101805.00
2019-02-06T17:56:00.497Z,101802.86
2019-02-06T17:57:04.899Z,101799.80
2019-02-06T18:00:28.354Z,101809.36
2019-02-06T18:02:37.175Z,101801.10
2019-02-06T18:03:43.346Z,101802.86
2019-02-06T18:04:47.543Z,101788.58
2019-02-06T18:05:51.703Z,101795.45
2019-02-06T18:07:59.229Z,101785.06
2019-02-06T18:09:06.933Z,101788.08
2019-02-06T18:10:16.873Z,101782.46
2019-02-06T18:11:21.018Z,101788.99
2019-02-06T18:12:27.805Z,101787.27
2019-02-06T18:15:39.369Z,101788.53
2019-02-06T18:17:46.917Z,101787.27
2019-02-06T18:18:51.052Z,101792.47
2019-02-06T18:20:58.813Z,101788.16
2019-02-06T18:22:05.508Z,101788.16
2019-02-06T18:25:16.453Z,101782.04
2019-02-06T18:26:20.851Z,101779.44
2019-02-06T18:27:25.682Z,101778.56
2019-02-06T18:29:33.471Z,101780.73
2019-02-06T18:30:37.881Z,101778.14
2019-02-06T18:32:45.661Z,101776.80
2019-02-06T18:35:56.800Z,101783.80
2019-02-06T18:37:01.191Z,101779.48
2019-02-06T18:39:11.003Z,101777.34
2019-02-06T18:40:16.723Z,101779.06
2019-02-06T18:41:22.120Z,101777.34
2019-02-06T18:42:36.683Z,101777.77
2019-02-06T18:43:32.640Z,101778.64
2019-02-06T18:45:41.455Z,101772.56
2019-02-06T18:46:46.367Z,101775.58
2019-02-06T18:47:57.860Z,101770.80
2019-02-06T18:49:02.828Z,101765.19
2019-02-06T18:51:14.884Z,101764.34
2019-02-06T18:53:23.627Z,101759.11
2019-02-06T18:55:31.387Z,101760.41
2019-02-06T18:57:39.173Z,101759.11
2019-02-06T18:59:46.989Z,101750.02
2019-02-06T19:00:51.379Z,101748.72
2019-02-06T19:03:00.394Z,101748.72
2019-02-06T19:05:12.000Z,101744.41
2019-02-06T19:06:18.971Z,101741.34
2019-02-06T19:10:34.752Z,101738.75
2019-02-06T19:12:48.010Z,101732.26
2019-02-06T19:14:52.374Z,101728.81
2019-02-06T19:18:07.456Z,101723.20
2019-02-06T19:19:11.842Z,101718.84
2019-02-06T19:21:20.757Z,101718.39
2019-02-06T19:27:42.040Z,101705.40
2019-02-06T19:28:46.424Z,101705.44
2019-02-06T19:29:50.803Z,101702.38
2019-02-06T19:30:55.660Z,101695.05
2019-02-06T19:32:00.197Z,101702.84
2019-02-06T19:33:04.801Z,101699.36
2019-02-06T19:34:09.217Z,101697.19
2019-02-06T19:35:13.618Z,101692.86
2019-02-06T19:36:18.020Z,101694.20
2019-02-06T19:39:30.123Z,101689.00
2019-02-06T19:40:34.535Z,101687.31
2019-02-06T19:43:45.678Z,101684.69
2019-02-06T19:49:03.573Z,101672.61
2019-02-06T19:50:16.830Z,101677.34
2019-02-06T19:51:21.535Z,101672.16
2019-02-06T19:53:29.503Z,101667.83
2019-02-06T19:54:33.908Z,101667.83
2019-02-06T19:55:38.857Z,101669.09
2019-02-06T19:56:43.345Z,101664.32
2019-02-06T19:57:47.823Z,101662.64
2019-02-06T19:58:52.241Z,101663.48
2019-02-06T19:59:56.761Z,101663.02
2019-02-06T20:01:01.171Z,101663.91
2019-02-06T20:02:06.616Z,101663.94
2019-02-06T20:03:11.001Z,101654.81
2019-02-06T20:04:16.073Z,101649.19
2019-02-06T20:05:20.559Z,101641.39
2019-02-06T20:06:25.181Z,101634.48
2019-02-06T20:10:43.019Z,101633.18
2019-02-06T20:12:50.776Z,101632.34
2019-02-06T20:14:58.545Z,101623.70
2019-02-06T20:17:06.320Z,101622.82
2019-02-06T20:18:10.704Z,101615.45
2019-02-06T20:19:15.119Z,101621.10
2019-02-06T20:20:27.823Z,101605.34
2019-02-06T20:21:32.214Z,101619.80
2019-02-06T20:22:36.917Z,101616.75
2019-02-06T20:23:41.356Z,101618.05
2019-02-06T20:25:49.307Z,101604.64
2019-02-06T20:30:10.056Z,101600.34
2019-02-06T20:32:19.417Z,101595.96
2019-02-06T20:34:27.597Z,101599.02
2019-02-06T20:37:38.761Z,101596.03
2019-02-06T20:38:43.169Z,101593.39
2019-02-06T20:39:47.584Z,101595.15
2019-02-06T20:42:59.537Z,101598.17
2019-02-06T20:44:04.943Z,101595.58
2019-02-06T20:45:10.789Z,101592.98
2019-02-06T20:46:15.302Z,101593.39
2019-02-06T20:48:23.845Z,101586.91
2019-02-06T20:53:44.101Z,101584.76
2019-02-06T20:55:51.905Z,101576.12
2019-02-06T20:56:56.305Z,101575.70
2019-02-06T20:58:01.717Z,101575.70
2019-02-06T20:59:07.129Z,101573.52
2019-02-06T21:00:21.718Z,101574.39
2019-02-06T21:02:30.351Z,101572.22
2019-02-06T21:04:38.684Z,101575.70
2019-02-06T21:06:46.453Z,101570.05
2019-02-06T21:07:50.850Z,101560.98
2019-02-06T21:09:58.917Z,101547.99
2019-02-06T21:11:03.456Z,101546.69
2019-02-06T21:12:07.873Z,101543.67
2019-02-06T21:14:16.071Z,101545.39
2019-02-06T21:16:23.968Z,101551.92
2019-02-06T21:17:28.381Z,101551.50
2019-02-06T21:20:39.547Z,101546.27
2019-02-06T21:24:54.041Z,101543.67
2019-02-06T21:25:58.445Z,101546.30
2019-02-06T21:27:02.863Z,101539.35
2019-02-06T21:28:08.839Z,101543.25
2019-02-06T21:29:13.239Z,101537.20
2019-02-06T21:32:27.691Z,101525.09
2019-02-06T21:33:32.200Z,101521.19
2019-02-06T21:35:39.977Z,101519.02
2019-02-06T21:39:54.542Z,101508.65
2019-02-06T21:40:58.935Z,101505.17
2019-02-06T21:49:27.368Z,101501.70
2019-02-06T21:50:31.887Z,101501.73
2019-02-06T21:51:36.396Z,101494.36
2019-02-06T21:54:48.869Z,101495.23
2019-02-06T21:56:56.758Z,101492.64
2019-02-06T21:59:04.597Z,101479.22
2019-02-06T22:00:16.809Z,101482.70
2019-02-06T22:01:21.213Z,101483.12
2019-02-06T22:02:25.707Z,101484.45
2019-02-06T22:03:30.125Z,101475.75
2019-02-06T22:04:34.641Z,101480.09
2019-02-06T22:05:39.146Z,101467.53
2019-02-06T22:08:50.959Z,101472.33
2019-02-06T22:10:59.026Z,101469.31
2019-02-06T22:12:03.423Z,101468.01
2019-02-06T22:13:07.900Z,101466.28
2019-02-06T22:16:22.008Z,101458.91
2019-02-06T22:17:28.431Z,101455.89
2019-02-06T22:18:32.659Z,101457.64
2019-02-06T22:19:37.084Z,101455.92
2019-02-06T22:20:41.496Z,101460.24
2019-02-06T22:22:49.541Z,101444.23
2019-02-06T22:24:57.316Z,101439.88
2019-02-06T22:27:05.091Z,101438.16
2019-02-06T22:28:09.489Z,101439.45
2019-02-06T22:31:23.685Z,101436.43
2019-02-06T22:32:28.854Z,101434.26
2019-02-06T22:33:33.262Z,101436.01
2019-02-06T22:35:41.071Z,101432.10
2019-02-06T22:36:45.468Z,101432.95
2019-02-06T22:37:49.901Z,101423.86
2019-02-06T22:39:57.689Z,101420.86
2019-02-06T22:42:05.275Z,101417.36
2019-02-06T22:43:10.095Z,101415.66
2019-02-06T22:44:14.494Z,101414.36
2019-02-06T22:45:21.525Z,101410.47
2019-02-06T22:46:25.998Z,101408.29
2019-02-06T22:47:30.397Z,101403.52
2019-02-06T22:50:41.585Z,101390.97
2019-02-06T22:51:46.075Z,101389.70
2019-02-06T22:52:50.477Z,101384.92
2019-02-06T22:53:54.867Z,101387.13
2019-02-06T23:00:24.233Z,101374.59
2019-02-06T23:04:40.845Z,101373.73
2019-02-06T23:05:45.252Z,101368.52
2019-02-06T23:07:52.917Z,101357.69
2019-02-06T23:12:07.451Z,101356.84
2019-02-06T23:14:18.202Z,101352.51
2019-02-06T23:16:24.831Z,101346.02
2019-02-06T23:17:30.280Z,101346.46
2019-02-06T23:18:35.222Z,101344.71
2019-02-06T23:21:46.479Z,101342.56
2019-02-06T23:22:50.692Z,101337.79
2019-02-06T23:23:54.897Z,101332.59
2019-02-06T23:24:59.305Z,101332.17
2019-02-06T23:26:04.476Z,101328.72
2019-02-06T23:27:09.966Z,101327.84
2019-02-06T23:29:18.281Z,101324.38
2019-02-06T23:31:25.812Z,101318.75
2019-02-06T23:33:33.890Z,101314.42
2019-02-06T23:34:38.058Z,101316.17
2019-02-06T23:45:14.584Z,101294.53
2019-02-06T23:46:19.208Z,101291.08
2019-02-06T23:47:24.002Z,101287.18
2019-02-06T23:48:28.429Z,101274.61
2019-02-06T23:51:39.617Z,101273.33
2019-02-06T23:53:47.139Z,101266.83
2019-02-06T23:56:58.782Z,101259.48
